sensor_id;sensor_type;location;lat;lon;timestamp;P1;durP1;ratioP1;P2;durP2;ratioP2
77705;SDS011;66874;45.274;5.880;2023-11-19T00:00:18;22.52;;;10.48;;
77705;SDS011;66874;45.274;5.880;2023-11-19T00:02:43;25.35;;;12.27;;
77705;SDS011;66874;45.274;5.880;2023-11-19T00:05:09;27.08;;;11.98;;
77705;SDS011;66874;45.274;5.880;2023-11-19T00:07:36;26.48;;;11.77;;
77705;SDS011;66874;45.274;5.880;2023-11-19T00:10:06;22.38;;;10.90;;
77705;SDS011;66874;45.274;5.880;2023-11-19T00:15:10;21.17;;;10.05;;
77705;SDS011;66874;45.274;5.880;2023-11-19T00:17:40;20.33;;;9.63;;
77705;SDS011;66874;45.274;5.880;2023-11-19T00:20:09;17.50;;;9.40;;
77705;SDS011;66874;45.274;5.880;2023-11-19T00:22:39;17.25;;;10.02;;
77705;SDS011;66874;45.274;5.880;2023-11-19T00:25:05;20.55;;;10.85;;
77705;SDS011;66874;45.274;5.880;2023-11-19T00:27:31;17.67;;;10.25;;
77705;SDS011;66874;45.274;5.880;2023-11-19T00:29:56;18.02;;;9.32;;
77705;SDS011;66874;45.274;5.880;2023-11-19T00:32:22;18.35;;;9.20;;
77705;SDS011;66874;45.274;5.880;2023-11-19T00:34:47;19.13;;;9.20;;
77705;SDS011;66874;45.274;5.880;2023-11-19T00:37:13;18.52;;;8.93;;
77705;SDS011;66874;45.274;5.880;2023-11-19T00:39:40;19.92;;;9.95;;
77705;SDS011;66874;45.274;5.880;2023-11-19T00:42:05;21.73;;;9.30;;
77705;SDS011;66874;45.274;5.880;2023-11-19T00:44:31;18.02;;;8.57;;
77705;SDS011;66874;45.274;5.880;2023-11-19T00:46:56;15.50;;;7.18;;
77705;SDS011;66874;45.274;5.880;2023-11-19T00:49:21;15.75;;;7.32;;
77705;SDS011;66874;45.274;5.880;2023-11-19T00:51:47;15.57;;;7.47;;
77705;SDS011;66874;45.274;5.880;2023-11-19T00:54:12;12.95;;;6.18;;
77705;SDS011;66874;45.274;5.880;2023-11-19T00:56:37;12.88;;;6.18;;
77705;SDS011;66874;45.274;5.880;2023-11-19T00:59:03;13.35;;;6.57;;
77705;SDS011;66874;45.274;5.880;2023-11-19T01:01:29;19.75;;;9.20;;
77705;SDS011;66874;45.274;5.880;2023-11-19T01:03:54;16.48;;;7.40;;
77705;SDS011;66874;45.274;5.880;2023-11-19T01:06:31;11.07;;;5.68;;
77705;SDS011;66874;45.274;5.880;2023-11-19T01:08:57;11.10;;;4.90;;
77705;SDS011;66874;45.274;5.880;2023-11-19T01:11:23;9.18;;;4.75;;
77705;SDS011;66874;45.274;5.880;2023-11-19T01:13:49;10.63;;;4.53;;
77705;SDS011;66874;45.274;5.880;2023-11-19T01:16:15;10.45;;;5.18;;
77705;SDS011;66874;45.274;5.880;2023-11-19T01:18:41;13.15;;;5.65;;
77705;SDS011;66874;45.274;5.880;2023-11-19T01:21:06;11.65;;;5.05;;
77705;SDS011;66874;45.274;5.880;2023-11-19T01:23:32;10.52;;;5.07;;
77705;SDS011;66874;45.274;5.880;2023-11-19T01:25:57;8.02;;;5.10;;
77705;SDS011;66874;45.274;5.880;2023-11-19T01:28:23;10.90;;;5.35;;
77705;SDS011;66874;45.274;5.880;2023-11-19T01:30:52;8.25;;;4.72;;
77705;SDS011;66874;45.274;5.880;2023-11-19T01:33:17;9.45;;;4.00;;
77705;SDS011;66874;45.274;5.880;2023-11-19T01:35:43;10.00;;;4.53;;
77705;SDS011;66874;45.274;5.880;2023-11-19T01:38:08;9.55;;;4.45;;
77705;SDS011;66874;45.274;5.880;2023-11-19T01:40:34;7.35;;;3.72;;
77705;SDS011;66874;45.274;5.880;2023-11-19T01:43:01;8.57;;;4.80;;
77705;SDS011;66874;45.274;5.880;2023-11-19T01:45:27;8.88;;;4.03;;
77705;SDS011;66874;45.274;5.880;2023-11-19T01:47:57;9.23;;;4.60;;
77705;SDS011;66874;45.274;5.880;2023-11-19T01:50:25;7.30;;;4.10;;
77705;SDS011;66874;45.274;5.880;2023-11-19T01:52:54;8.52;;;4.50;;
77705;SDS011;66874;45.274;5.880;2023-11-19T01:55:22;8.95;;;3.72;;
77705;SDS011;66874;45.274;5.880;2023-11-19T01:57:49;10.35;;;4.20;;
77705;SDS011;66874;45.274;5.880;2023-11-19T02:00:16;8.23;;;4.63;;
77705;SDS011;66874;45.274;5.880;2023-11-19T02:02:44;8.75;;;3.42;;
77705;SDS011;66874;45.274;5.880;2023-11-19T02:05:11;7.47;;;3.72;;
77705;SDS011;66874;45.274;5.880;2023-11-19T02:07:38;9.20;;;3.45;;
77705;SDS011;66874;45.274;5.880;2023-11-19T02:10:03;9.00;;;3.80;;
77705;SDS011;66874;45.274;5.880;2023-11-19T02:12:30;4.70;;;2.92;;
77705;SDS011;66874;45.274;5.880;2023-11-19T02:15:00;9.52;;;5.10;;
77705;SDS011;66874;45.274;5.880;2023-11-19T02:19:53;11.15;;;5.47;;
77705;SDS011;66874;45.274;5.880;2023-11-19T02:22:18;13.77;;;6.13;;
77705;SDS011;66874;45.274;5.880;2023-11-19T02:24:45;10.02;;;5.78;;
77705;SDS011;66874;45.274;5.880;2023-11-19T02:27:16;10.80;;;5.70;;
77705;SDS011;66874;45.274;5.880;2023-11-19T02:29:55;10.85;;;5.80;;
77705;SDS011;66874;45.274;5.880;2023-11-19T02:32:22;10.60;;;5.60;;
77705;SDS011;66874;45.274;5.880;2023-11-19T02:34:48;9.00;;;4.78;;
77705;SDS011;66874;45.274;5.880;2023-11-19T02:37:13;8.45;;;4.28;;
77705;SDS011;66874;45.274;5.880;2023-11-19T02:39:40;8.55;;;4.20;;
77705;SDS011;66874;45.274;5.880;2023-11-19T02:42:06;10.75;;;5.15;;
77705;SDS011;66874;45.274;5.880;2023-11-19T02:44:33;8.73;;;5.03;;
77705;SDS011;66874;45.274;5.880;2023-11-19T02:46:59;8.63;;;4.30;;
77705;SDS011;66874;45.274;5.880;2023-11-19T02:49:25;7.57;;;4.45;;
77705;SDS011;66874;45.274;5.880;2023-11-19T02:51:50;9.38;;;4.95;;
77705;SDS011;66874;45.274;5.880;2023-11-19T02:54:16;9.90;;;4.15;;
77705;SDS011;66874;45.274;5.880;2023-11-19T02:56:44;7.38;;;4.43;;
77705;SDS011;66874;45.274;5.880;2023-11-19T02:59:12;7.50;;;4.15;;
77705;SDS011;66874;45.274;5.880;2023-11-19T03:01:52;9.02;;;4.32;;
77705;SDS011;66874;45.274;5.880;2023-11-19T03:04:17;6.70;;;3.13;;
77705;SDS011;66874;45.274;5.880;2023-11-19T03:06:45;5.65;;;3.03;;
77705;SDS011;66874;45.274;5.880;2023-11-19T03:09:10;6.97;;;2.85;;
77705;SDS011;66874;45.274;5.880;2023-11-19T03:11:36;4.80;;;2.65;;
77705;SDS011;66874;45.274;5.880;2023-11-19T03:14:01;3.97;;;2.55;;
77705;SDS011;66874;45.274;5.880;2023-11-19T03:16:28;3.75;;;2.75;;
77705;SDS011;66874;45.274;5.880;2023-11-19T03:18:53;3.60;;;2.35;;
77705;SDS011;66874;45.274;5.880;2023-11-19T03:21:18;4.35;;;2.45;;
77705;SDS011;66874;45.274;5.880;2023-11-19T03:23:44;4.93;;;2.40;;
77705;SDS011;66874;45.274;5.880;2023-11-19T03:26:10;3.65;;;2.30;;
77705;SDS011;66874;45.274;5.880;2023-11-19T03:28:36;5.95;;;3.03;;
77705;SDS011;66874;45.274;5.880;2023-11-19T03:31:04;3.63;;;2.47;;
77705;SDS011;66874;45.274;5.880;2023-11-19T03:33:31;5.57;;;3.20;;
77705;SDS011;66874;45.274;5.880;2023-11-19T03:35:56;6.32;;;2.70;;
77705;SDS011;66874;45.274;5.880;2023-11-19T03:38:22;5.43;;;2.53;;
77705;SDS011;66874;45.274;5.880;2023-11-19T03:40:49;3.88;;;2.38;;
77705;SDS011;66874;45.274;5.880;2023-11-19T03:43:14;4.15;;;2.90;;
77705;SDS011;66874;45.274;5.880;2023-11-19T03:45:40;7.97;;;3.45;;
77705;SDS011;66874;45.274;5.880;2023-11-19T03:48:06;5.95;;;2.85;;
77705;SDS011;66874;45.274;5.880;2023-11-19T03:50:31;7.47;;;3.20;;
77705;SDS011;66874;45.274;5.880;2023-11-19T03:52:56;4.93;;;2.60;;
77705;SDS011;66874;45.274;5.880;2023-11-19T03:55:22;8.27;;;3.45;;
77705;SDS011;66874;45.274;5.880;2023-11-19T03:57:47;5.32;;;3.15;;
77705;SDS011;66874;45.274;5.880;2023-11-19T04:00:13;7.80;;;3.22;;
77705;SDS011;66874;45.274;5.880;2023-11-19T04:02:40;7.18;;;4.28;;
77705;SDS011;66874;45.274;5.880;2023-11-19T04:05:06;8.38;;;3.90;;
77705;SDS011;66874;45.274;5.880;2023-11-19T04:07:32;6.15;;;3.72;;
77705;SDS011;66874;45.274;5.880;2023-11-19T04:09:57;7.00;;;3.85;;
77705;SDS011;66874;45.274;5.880;2023-11-19T04:12:23;8.95;;;4.75;;
77705;SDS011;66874;45.274;5.880;2023-11-19T04:14:48;10.55;;;5.30;;
77705;SDS011;66874;45.274;5.880;2023-11-19T04:17:14;9.82;;;5.13;;
77705;SDS011;66874;45.274;5.880;2023-11-19T04:19:39;9.77;;;5.80;;
77705;SDS011;66874;45.274;5.880;2023-11-19T04:22:06;12.93;;;5.68;;
77705;SDS011;66874;45.274;5.880;2023-11-19T04:24:35;9.57;;;4.65;;
77705;SDS011;66874;45.274;5.880;2023-11-19T04:27:01;6.72;;;4.03;;
77705;SDS011;66874;45.274;5.880;2023-11-19T04:29:26;7.63;;;3.80;;
77705;SDS011;66874;45.274;5.880;2023-11-19T04:31:52;9.15;;;4.80;;
77705;SDS011;66874;45.274;5.880;2023-11-19T04:34:17;9.40;;;5.18;;
77705;SDS011;66874;45.274;5.880;2023-11-19T04:36:42;9.77;;;5.07;;
77705;SDS011;66874;45.274;5.880;2023-11-19T04:39:08;11.95;;;4.45;;
77705;SDS011;66874;45.274;5.880;2023-11-19T04:41:50;7.97;;;4.50;;
77705;SDS011;66874;45.274;5.880;2023-11-19T04:44:19;9.48;;;4.65;;
77705;SDS011;66874;45.274;5.880;2023-11-19T04:46:44;9.30;;;4.20;;
77705;SDS011;66874;45.274;5.880;2023-11-19T04:49:10;7.88;;;4.72;;
77705;SDS011;66874;45.274;5.880;2023-11-19T04:51:44;10.77;;;4.45;;
77705;SDS011;66874;45.274;5.880;2023-11-19T04:54:12;11.77;;;5.32;;
77705;SDS011;66874;45.274;5.880;2023-11-19T04:56:37;9.10;;;5.57;;
77705;SDS011;66874;45.274;5.880;2023-11-19T04:59:03;8.77;;;5.05;;
77705;SDS011;66874;45.274;5.880;2023-11-19T05:01:30;8.50;;;4.78;;
77705;SDS011;66874;45.274;5.880;2023-11-19T05:03:58;11.25;;;5.57;;
77705;SDS011;66874;45.274;5.880;2023-11-19T05:06:27;10.07;;;5.70;;
77705;SDS011;66874;45.274;5.880;2023-11-19T05:08:54;12.00;;;5.47;;
77705;SDS011;66874;45.274;5.880;2023-11-19T05:11:20;10.18;;;5.30;;
77705;SDS011;66874;45.274;5.880;2023-11-19T05:13:45;7.78;;;4.25;;
77705;SDS011;66874;45.274;5.880;2023-11-19T05:16:11;7.85;;;3.85;;
77705;SDS011;66874;45.274;5.880;2023-11-19T05:18:39;7.95;;;3.92;;
77705;SDS011;66874;45.274;5.880;2023-11-19T05:21:05;7.20;;;4.38;;
77705;SDS011;66874;45.274;5.880;2023-11-19T05:23:30;7.88;;;3.58;;
77705;SDS011;66874;45.274;5.880;2023-11-19T05:25:56;8.57;;;4.25;;
77705;SDS011;66874;45.274;5.880;2023-11-19T05:28:23;8.45;;;4.50;;
77705;SDS011;66874;45.274;5.880;2023-11-19T05:30:49;5.03;;;3.05;;
77705;SDS011;66874;45.274;5.880;2023-11-19T05:33:15;7.28;;;4.00;;
77705;SDS011;66874;45.274;5.880;2023-11-19T05:35:40;11.63;;;4.72;;
77705;SDS011;66874;45.274;5.880;2023-11-19T05:38:05;11.73;;;5.45;;
77705;SDS011;66874;45.274;5.880;2023-11-19T05:40:31;8.93;;;5.57;;
77705;SDS011;66874;45.274;5.880;2023-11-19T05:42:56;9.05;;;5.63;;
77705;SDS011;66874;45.274;5.880;2023-11-19T05:45:22;11.23;;;5.68;;
77705;SDS011;66874;45.274;5.880;2023-11-19T05:47:47;14.25;;;6.53;;
77705;SDS011;66874;45.274;5.880;2023-11-19T05:50:12;18.48;;;7.40;;
77705;SDS011;66874;45.274;5.880;2023-11-19T05:52:38;11.55;;;6.10;;
77705;SDS011;66874;45.274;5.880;2023-11-19T05:55:03;10.00;;;5.53;;
77705;SDS011;66874;45.274;5.880;2023-11-19T05:57:31;8.65;;;4.93;;
77705;SDS011;66874;45.274;5.880;2023-11-19T05:59:56;11.10;;;5.93;;
77705;SDS011;66874;45.274;5.880;2023-11-19T06:02:21;10.32;;;5.85;;
77705;SDS011;66874;45.274;5.880;2023-11-19T06:04:46;9.63;;;5.20;;
77705;SDS011;66874;45.274;5.880;2023-11-19T06:07:13;10.52;;;5.00;;
77705;SDS011;66874;45.274;5.880;2023-11-19T06:09:40;9.10;;;4.55;;
77705;SDS011;66874;45.274;5.880;2023-11-19T06:12:05;11.52;;;4.47;;
77705;SDS011;66874;45.274;5.880;2023-11-19T06:14:32;10.70;;;4.77;;
77705;SDS011;66874;45.274;5.880;2023-11-19T06:16:57;7.82;;;4.70;;
77705;SDS011;66874;45.274;5.880;2023-11-19T06:19:23;7.38;;;4.15;;
77705;SDS011;66874;45.274;5.880;2023-11-19T06:21:50;10.17;;;4.90;;
77705;SDS011;66874;45.274;5.880;2023-11-19T06:24:15;7.53;;;3.90;;
77705;SDS011;66874;45.274;5.880;2023-11-19T06:26:41;9.43;;;3.85;;
77705;SDS011;66874;45.274;5.880;2023-11-19T06:29:06;10.13;;;4.35;;
77705;SDS011;66874;45.274;5.880;2023-11-19T06:31:32;6.10;;;3.47;;
77705;SDS011;66874;45.274;5.880;2023-11-19T06:33:57;7.07;;;4.05;;
77705;SDS011;66874;45.274;5.880;2023-11-19T06:36:22;6.55;;;3.80;;
77705;SDS011;66874;45.274;5.880;2023-11-19T06:38:48;6.70;;;3.42;;
77705;SDS011;66874;45.274;5.880;2023-11-19T06:41:13;7.32;;;3.97;;
77705;SDS011;66874;45.274;5.880;2023-11-19T06:43:38;6.85;;;3.40;;
77705;SDS011;66874;45.274;5.880;2023-11-19T06:46:04;8.20;;;3.92;;
77705;SDS011;66874;45.274;5.880;2023-11-19T06:48:33;5.00;;;2.80;;
77705;SDS011;66874;45.274;5.880;2023-11-19T06:50:59;4.43;;;2.95;;
77705;SDS011;66874;45.274;5.880;2023-11-19T06:53:25;7.00;;;4.15;;
77705;SDS011;66874;45.274;5.880;2023-11-19T06:55:50;6.63;;;3.97;;
77705;SDS011;66874;45.274;5.880;2023-11-19T06:58:15;8.02;;;4.00;;
77705;SDS011;66874;45.274;5.880;2023-11-19T07:00:42;8.85;;;4.03;;
77705;SDS011;66874;45.274;5.880;2023-11-19T07:03:07;7.35;;;4.57;;
77705;SDS011;66874;45.274;5.880;2023-11-19T07:05:35;7.68;;;4.47;;
77705;SDS011;66874;45.274;5.880;2023-11-19T07:08:03;12.52;;;5.35;;
77705;SDS011;66874;45.274;5.880;2023-11-19T07:10:28;12.38;;;5.25;;
77705;SDS011;66874;45.274;5.880;2023-11-19T07:12:55;14.65;;;5.72;;
77705;SDS011;66874;45.274;5.880;2023-11-19T07:15:21;10.80;;;5.22;;
77705;SDS011;66874;45.274;5.880;2023-11-19T07:17:46;11.50;;;5.47;;
77705;SDS011;66874;45.274;5.880;2023-11-19T07:20:13;7.68;;;4.90;;
77705;SDS011;66874;45.274;5.880;2023-11-19T07:22:42;7.88;;;5.45;;
77705;SDS011;66874;45.274;5.880;2023-11-19T07:25:10;11.40;;;5.85;;
77705;SDS011;66874;45.274;5.880;2023-11-19T07:27:37;9.60;;;5.78;;
77705;SDS011;66874;45.274;5.880;2023-11-19T07:30:03;17.33;;;5.70;;
77705;SDS011;66874;45.274;5.880;2023-11-19T07:32:30;14.25;;;6.10;;
77705;SDS011;66874;45.274;5.880;2023-11-19T07:34:55;18.58;;;8.95;;
77705;SDS011;66874;45.274;5.880;2023-11-19T07:37:21;15.55;;;7.82;;
77705;SDS011;66874;45.274;5.880;2023-11-19T07:39:47;14.88;;;7.93;;
77705;SDS011;66874;45.274;5.880;2023-11-19T07:42:12;11.88;;;6.85;;
77705;SDS011;66874;45.274;5.880;2023-11-19T07:44:38;17.33;;;6.85;;
77705;SDS011;66874;45.274;5.880;2023-11-19T07:47:03;15.82;;;7.53;;
77705;SDS011;66874;45.274;5.880;2023-11-19T07:49:29;14.48;;;7.60;;
77705;SDS011;66874;45.274;5.880;2023-11-19T07:51:55;14.55;;;7.75;;
77705;SDS011;66874;45.274;5.880;2023-11-19T07:54:21;15.65;;;7.50;;
77705;SDS011;66874;45.274;5.880;2023-11-19T07:56:47;16.42;;;7.28;;
77705;SDS011;66874;45.274;5.880;2023-11-19T07:59:12;16.25;;;8.18;;
77705;SDS011;66874;45.274;5.880;2023-11-19T08:01:37;15.35;;;9.23;;
77705;SDS011;66874;45.274;5.880;2023-11-19T08:04:03;12.75;;;7.95;;
77705;SDS011;66874;45.274;5.880;2023-11-19T08:06:28;20.50;;;8.25;;
77705;SDS011;66874;45.274;5.880;2023-11-19T08:08:54;16.27;;;8.77;;
77705;SDS011;66874;45.274;5.880;2023-11-19T08:11:19;14.02;;;8.65;;
77705;SDS011;66874;45.274;5.880;2023-11-19T08:13:47;13.30;;;7.57;;
77705;SDS011;66874;45.274;5.880;2023-11-19T08:16:12;12.27;;;7.60;;
77705;SDS011;66874;45.274;5.880;2023-11-19T08:18:38;12.77;;;7.25;;
77705;SDS011;66874;45.274;5.880;2023-11-19T08:21:06;13.48;;;7.00;;
77705;SDS011;66874;45.274;5.880;2023-11-19T08:23:31;13.40;;;7.65;;
77705;SDS011;66874;45.274;5.880;2023-11-19T08:25:57;11.75;;;6.53;;
77705;SDS011;66874;45.274;5.880;2023-11-19T08:28:22;13.60;;;7.35;;
77705;SDS011;66874;45.274;5.880;2023-11-19T08:30:47;13.63;;;6.57;;
77705;SDS011;66874;45.274;5.880;2023-11-19T08:33:13;12.70;;;7.03;;
77705;SDS011;66874;45.274;5.880;2023-11-19T08:35:40;12.50;;;5.97;;
77705;SDS011;66874;45.274;5.880;2023-11-19T08:38:05;15.82;;;6.57;;
77705;SDS011;66874;45.274;5.880;2023-11-19T08:40:30;10.43;;;6.22;;
77705;SDS011;66874;45.274;5.880;2023-11-19T08:42:56;13.75;;;6.82;;
77705;SDS011;66874;45.274;5.880;2023-11-19T08:45:22;12.95;;;7.45;;
77705;SDS011;66874;45.274;5.880;2023-11-19T08:47:47;12.45;;;6.30;;
77705;SDS011;66874;45.274;5.880;2023-11-19T08:50:13;11.27;;;5.53;;
77705;SDS011;66874;45.274;5.880;2023-11-19T08:52:38;11.43;;;5.90;;
77705;SDS011;66874;45.274;5.880;2023-11-19T08:55:04;9.02;;;5.07;;
77705;SDS011;66874;45.274;5.880;2023-11-19T08:57:49;9.68;;;5.20;;
77705;SDS011;66874;45.274;5.880;2023-11-19T09:00:15;11.15;;;5.88;;
77705;SDS011;66874;45.274;5.880;2023-11-19T09:02:41;12.73;;;6.18;;
77705;SDS011;66874;45.274;5.880;2023-11-19T09:05:07;12.07;;;6.72;;
77705;SDS011;66874;45.274;5.880;2023-11-19T09:07:33;14.52;;;7.20;;
77705;SDS011;66874;45.274;5.880;2023-11-19T09:09:58;12.15;;;6.97;;
77705;SDS011;66874;45.274;5.880;2023-11-19T09:12:24;17.42;;;8.10;;
77705;SDS011;66874;45.274;5.880;2023-11-19T09:14:49;10.90;;;6.07;;
77705;SDS011;66874;45.274;5.880;2023-11-19T09:17:15;12.65;;;6.63;;
77705;SDS011;66874;45.274;5.880;2023-11-19T09:19:42;11.32;;;6.22;;
77705;SDS011;66874;45.274;5.880;2023-11-19T09:22:07;8.30;;;5.68;;
77705;SDS011;66874;45.274;5.880;2023-11-19T09:24:33;9.77;;;5.28;;
77705;SDS011;66874;45.274;5.880;2023-11-19T09:26:58;9.73;;;5.32;;
77705;SDS011;66874;45.274;5.880;2023-11-19T09:29:24;8.93;;;5.50;;
77705;SDS011;66874;45.274;5.880;2023-11-19T09:31:49;7.07;;;4.10;;
77705;SDS011;66874;45.274;5.880;2023-11-19T09:34:14;8.15;;;4.00;;
77705;SDS011;66874;45.274;5.880;2023-11-19T09:36:40;6.60;;;3.45;;
77705;SDS011;66874;45.274;5.880;2023-11-19T09:39:09;4.85;;;3.20;;
77705;SDS011;66874;45.274;5.880;2023-11-19T09:41:40;5.93;;;4.70;;
77705;SDS011;66874;45.274;5.880;2023-11-19T09:44:06;7.50;;;5.00;;
77705;SDS011;66874;45.274;5.880;2023-11-19T09:49:30;6.97;;;4.72;;
77705;SDS011;66874;45.274;5.880;2023-11-19T09:51:56;7.78;;;5.00;;
77705;SDS011;66874;45.274;5.880;2023-11-19T09:54:21;8.00;;;4.90;;
77705;SDS011;66874;45.274;5.880;2023-11-19T09:56:47;8.90;;;5.30;;
77705;SDS011;66874;45.274;5.880;2023-11-19T09:59:13;8.98;;;5.43;;
77705;SDS011;66874;45.274;5.880;2023-11-19T10:01:39;8.13;;;5.65;;
77705;SDS011;66874;45.274;5.880;2023-11-19T10:04:05;9.40;;;6.40;;
77705;SDS011;66874;45.274;5.880;2023-11-19T10:06:32;9.15;;;5.60;;
77705;SDS011;66874;45.274;5.880;2023-11-19T10:08:57;9.43;;;6.35;;
77705;SDS011;66874;45.274;5.880;2023-11-19T10:11:24;9.32;;;5.82;;
77705;SDS011;66874;45.274;5.880;2023-11-19T10:13:49;8.13;;;5.35;;
77705;SDS011;66874;45.274;5.880;2023-11-19T10:16:17;11.27;;;6.70;;
77705;SDS011;66874;45.274;5.880;2023-11-19T10:18:47;8.40;;;5.87;;
77705;SDS011;66874;45.274;5.880;2023-11-19T10:21:14;6.97;;;5.53;;
77705;SDS011;66874;45.274;5.880;2023-11-19T10:26:17;8.85;;;4.88;;
77705;SDS011;66874;45.274;5.880;2023-11-19T10:28:44;8.23;;;4.38;;
77705;SDS011;66874;45.274;5.880;2023-11-19T10:33:40;6.47;;;3.70;;
77705;SDS011;66874;45.274;5.880;2023-11-19T10:36:06;6.45;;;3.47;;
77705;SDS011;66874;45.274;5.880;2023-11-19T10:38:32;6.28;;;3.38;;
77705;SDS011;66874;45.274;5.880;2023-11-19T10:40:58;8.10;;;3.00;;
77705;SDS011;66874;45.274;5.880;2023-11-19T10:43:24;5.53;;;3.65;;
77705;SDS011;66874;45.274;5.880;2023-11-19T10:45:49;6.50;;;3.20;;
77705;SDS011;66874;45.274;5.880;2023-11-19T10:48:15;5.28;;;3.47;;
77705;SDS011;66874;45.274;5.880;2023-11-19T10:50:42;4.63;;;2.97;;
77705;SDS011;66874;45.274;5.880;2023-11-19T10:53:09;6.05;;;3.25;;
77705;SDS011;66874;45.274;5.880;2023-11-19T10:55:37;4.63;;;2.97;;
77705;SDS011;66874;45.274;5.880;2023-11-19T10:58:06;5.00;;;3.33;;
77705;SDS011;66874;45.274;5.880;2023-11-19T11:03:02;4.35;;;2.88;;
77705;SDS011;66874;45.274;5.880;2023-11-19T11:05:35;4.22;;;2.38;;
77705;SDS011;66874;45.274;5.880;2023-11-19T11:08:03;4.43;;;2.20;;
77705;SDS011;66874;45.274;5.880;2023-11-19T11:10:31;5.50;;;2.75;;
77705;SDS011;66874;45.274;5.880;2023-11-19T11:13:02;4.28;;;2.90;;
77705;SDS011;66874;45.274;5.880;2023-11-19T11:20:24;6.45;;;3.10;;
77705;SDS011;66874;45.274;5.880;2023-11-19T11:22:57;3.63;;;3.17;;
77705;SDS011;66874;45.274;5.880;2023-11-19T11:28:35;5.22;;;3.88;;
77705;SDS011;66874;45.274;5.880;2023-11-19T11:39:28;5.25;;;3.75;;
77705;SDS011;66874;45.274;5.880;2023-11-19T11:45:16;3.75;;;2.78;;
77705;SDS011;66874;45.274;5.880;2023-11-19T11:50:15;2.92;;;2.10;;
77705;SDS011;66874;45.274;5.880;2023-11-19T11:53:13;3.33;;;2.25;;
77705;SDS011;66874;45.274;5.880;2023-11-19T11:58:07;3.05;;;2.28;;
77705;SDS011;66874;45.274;5.880;2023-11-19T12:00:37;4.35;;;2.38;;
77705;SDS011;66874;45.274;5.880;2023-11-19T12:03:04;4.88;;;1.90;;
77705;SDS011;66874;45.274;5.880;2023-11-19T12:05:30;5.37;;;2.27;;
77705;SDS011;66874;45.274;5.880;2023-11-19T12:08:00;2.47;;;2.00;;
77705;SDS011;66874;45.274;5.880;2023-11-19T12:10:30;6.10;;;1.83;;
77705;SDS011;66874;45.274;5.880;2023-11-19T12:13:04;4.68;;;2.10;;
77705;SDS011;66874;45.274;5.880;2023-11-19T12:15:49;6.93;;;2.15;;
77705;SDS011;66874;45.274;5.880;2023-11-19T12:18:29;4.18;;;2.28;;
77705;SDS011;66874;45.274;5.880;2023-11-19T12:20:55;4.40;;;2.10;;
77705;SDS011;66874;45.274;5.880;2023-11-19T12:23:25;2.88;;;2.05;;
77705;SDS011;66874;45.274;5.880;2023-11-19T12:25:51;3.70;;;1.88;;
77705;SDS011;66874;45.274;5.880;2023-11-19T12:28:17;2.67;;;2.05;;
77705;SDS011;66874;45.274;5.880;2023-11-19T12:30:44;3.50;;;2.13;;
77705;SDS011;66874;45.274;5.880;2023-11-19T12:33:10;6.28;;;2.15;;
77705;SDS011;66874;45.274;5.880;2023-11-19T12:35:39;3.60;;;1.98;;
77705;SDS011;66874;45.274;5.880;2023-11-19T12:38:18;3.15;;;2.33;;
77705;SDS011;66874;45.274;5.880;2023-11-19T12:40:44;5.55;;;1.75;;
77705;SDS011;66874;45.274;5.880;2023-11-19T12:43:09;2.22;;;1.80;;
77705;SDS011;66874;45.274;5.880;2023-11-19T12:45:35;4.13;;;1.98;;
77705;SDS011;66874;45.274;5.880;2023-11-19T12:48:04;2.47;;;1.67;;
77705;SDS011;66874;45.274;5.880;2023-11-19T12:50:53;2.80;;;2.05;;
77705;SDS011;66874;45.274;5.880;2023-11-19T12:53:19;3.25;;;2.30;;
77705;SDS011;66874;45.274;5.880;2023-11-19T12:55:45;3.92;;;2.10;;
77705;SDS011;66874;45.274;5.880;2023-11-19T12:58:27;4.15;;;2.28;;
77705;SDS011;66874;45.274;5.880;2023-11-19T13:01:06;3.65;;;2.17;;
77705;SDS011;66874;45.274;5.880;2023-11-19T13:03:33;5.10;;;2.35;;
77705;SDS011;66874;45.274;5.880;2023-11-19T13:08:44;7.68;;;2.30;;
77705;SDS011;66874;45.274;5.880;2023-11-19T13:11:11;4.60;;;2.83;;
77705;SDS011;66874;45.274;5.880;2023-11-19T13:13:57;5.28;;;2.78;;
77705;SDS011;66874;45.274;5.880;2023-11-19T13:16:24;4.65;;;2.78;;
77705;SDS011;66874;45.274;5.880;2023-11-19T13:18:51;3.63;;;2.67;;
77705;SDS011;66874;45.274;5.880;2023-11-19T13:21:16;4.78;;;2.30;;
77705;SDS011;66874;45.274;5.880;2023-11-19T13:23:42;4.20;;;2.30;;
77705;SDS011;66874;45.274;5.880;2023-11-19T13:26:08;2.63;;;2.05;;
77705;SDS011;66874;45.274;5.880;2023-11-19T13:28:34;4.10;;;1.90;;
77705;SDS011;66874;45.274;5.880;2023-11-19T13:30:59;3.10;;;1.80;;
77705;SDS011;66874;45.274;5.880;2023-11-19T13:33:25;3.50;;;1.98;;
77705;SDS011;66874;45.274;5.880;2023-11-19T13:35:51;2.20;;;1.65;;
77705;SDS011;66874;45.274;5.880;2023-11-19T13:38:18;3.13;;;2.10;;
77705;SDS011;66874;45.274;5.880;2023-11-19T13:40:43;3.65;;;1.83;;
77705;SDS011;66874;45.274;5.880;2023-11-19T13:43:09;2.22;;;1.80;;
77705;SDS011;66874;45.274;5.880;2023-11-19T13:45:34;2.97;;;1.95;;
77705;SDS011;66874;45.274;5.880;2023-11-19T13:47:59;6.90;;;2.22;;
77705;SDS011;66874;45.274;5.880;2023-11-19T13:50:25;2.08;;;1.85;;
77705;SDS011;66874;45.274;5.880;2023-11-19T13:52:50;3.40;;;1.98;;
77705;SDS011;66874;45.274;5.880;2023-11-19T13:55:16;8.13;;;4.20;;
77705;SDS011;66874;45.274;5.880;2023-11-19T13:57:41;6.20;;;2.35;;
77705;SDS011;66874;45.274;5.880;2023-11-19T14:00:08;4.63;;;2.40;;
77705;SDS011;66874;45.274;5.880;2023-11-19T14:02:45;3.47;;;2.22;;
77705;SDS011;66874;45.274;5.880;2023-11-19T14:05:14;3.58;;;2.00;;
77705;SDS011;66874;45.274;5.880;2023-11-19T14:07:42;3.08;;;1.73;;
77705;SDS011;66874;45.274;5.880;2023-11-19T14:10:08;6.10;;;2.15;;
77705;SDS011;66874;45.274;5.880;2023-11-19T14:12:34;8.85;;;3.45;;
77705;SDS011;66874;45.274;5.880;2023-11-19T14:15:03;13.75;;;5.20;;
77705;SDS011;66874;45.274;5.880;2023-11-19T14:17:31;5.43;;;2.42;;
77705;SDS011;66874;45.274;5.880;2023-11-19T14:19:57;3.58;;;2.22;;
77705;SDS011;66874;45.274;5.880;2023-11-19T14:22:22;4.78;;;2.58;;
77705;SDS011;66874;45.274;5.880;2023-11-19T14:24:48;7.05;;;2.95;;
77705;SDS011;66874;45.274;5.880;2023-11-19T14:27:13;3.45;;;2.55;;
77705;SDS011;66874;45.274;5.880;2023-11-19T14:29:39;4.57;;;3.05;;
77705;SDS011;66874;45.274;5.880;2023-11-19T14:32:05;7.40;;;3.88;;
77705;SDS011;66874;45.274;5.880;2023-11-19T14:34:31;9.93;;;4.45;;
77705;SDS011;66874;45.274;5.880;2023-11-19T14:37:00;13.20;;;4.60;;
77705;SDS011;66874;45.274;5.880;2023-11-19T14:39:25;12.60;;;5.18;;
77705;SDS011;66874;45.274;5.880;2023-11-19T14:41:51;12.85;;;4.60;;
77705;SDS011;66874;45.274;5.880;2023-11-19T14:44:18;14.35;;;4.60;;
77705;SDS011;66874;45.274;5.880;2023-11-19T14:46:45;12.25;;;4.80;;
77705;SDS011;66874;45.274;5.880;2023-11-19T14:49:10;9.98;;;3.53;;
77705;SDS011;66874;45.274;5.880;2023-11-19T14:51:36;5.00;;;3.00;;
77705;SDS011;66874;45.274;5.880;2023-11-19T14:54:03;4.90;;;3.40;;
77705;SDS011;66874;45.274;5.880;2023-11-19T14:56:29;9.75;;;6.18;;
77705;SDS011;66874;45.274;5.880;2023-11-19T14:58:55;6.88;;;5.15;;
77705;SDS011;66874;45.274;5.880;2023-11-19T15:01:20;9.93;;;6.90;;
77705;SDS011;66874;45.274;5.880;2023-11-19T15:03:45;8.45;;;6.03;;
77705;SDS011;66874;45.274;5.880;2023-11-19T15:06:11;5.82;;;3.33;;
77705;SDS011;66874;45.274;5.880;2023-11-19T15:08:36;5.28;;;3.75;;
77705;SDS011;66874;45.274;5.880;2023-11-19T15:11:02;6.22;;;4.30;;
77705;SDS011;66874;45.274;5.880;2023-11-19T15:13:29;9.10;;;5.57;;
77705;SDS011;66874;45.274;5.880;2023-11-19T15:15:55;8.02;;;6.88;;
77705;SDS011;66874;45.274;5.880;2023-11-19T15:18:21;9.40;;;6.13;;
77705;SDS011;66874;45.274;5.880;2023-11-19T15:20:46;7.43;;;4.88;;
77705;SDS011;66874;45.274;5.880;2023-11-19T15:23:15;8.05;;;4.68;;